sensor_id;sensor_type;location;lat;lon;timestamp;P1;durP1;ratioP1;P2;durP2;ratioP2
3573;SDS011;1801;51.050;6.246;2023-03-23T00:01:56;7.17;;;3.53;;
3573;SDS011;1801;51.050;6.246;2023-03-23T00:04:21;5.00;;;2.57;;
3573;SDS011;1801;51.050;6.246;2023-03-23T00:06:47;8.07;;;2.80;;
3573;SDS011;1801;51.050;6.246;2023-03-23T00:09:14;2.67;;;2.10;;
3573;SDS011;1801;51.050;6.246;2023-03-23T00:11:40;5.57;;;2.70;;
3573;SDS011;1801;51.050;6.246;2023-03-23T00:14:05;6.57;;;3.73;;
3573;SDS011;1801;51.050;6.246;2023-03-23T00:16:37;3.73;;;2.43;;
3573;SDS011;1801;51.050;6.246;2023-03-23T00:19:06;5.03;;;3.30;;
3573;SDS011;1801;51.050;6.246;2023-03-23T00:21:33;3.80;;;2.20;;
3573;SDS011;1801;51.050;6.246;2023-03-23T00:24:03;7.20;;;3.20;;
3573;SDS011;1801;51.050;6.246;2023-03-23T00:26:29;4.83;;;3.20;;
3573;SDS011;1801;51.050;6.246;2023-03-23T00:28:58;7.40;;;2.70;;
3573;SDS011;1801;51.050;6.246;2023-03-23T00:31:25;6.90;;;2.90;;
3573;SDS011;1801;51.050;6.246;2023-03-23T00:34:00;5.10;;;2.83;;
3573;SDS011;1801;51.050;6.246;2023-03-23T00:36:26;6.37;;;3.47;;
3573;SDS011;1801;51.050;6.246;2023-03-23T00:38:52;5.03;;;2.63;;
3573;SDS011;1801;51.050;6.246;2023-03-23T00:41:17;3.90;;;2.23;;
3573;SDS011;1801;51.050;6.246;2023-03-23T00:43:42;8.67;;;3.03;;
3573;SDS011;1801;51.050;6.246;2023-03-23T00:46:08;3.60;;;2.90;;
3573;SDS011;1801;51.050;6.246;2023-03-23T00:48:35;5.20;;;3.33;;
3573;SDS011;1801;51.050;6.246;2023-03-23T00:51:01;4.13;;;2.60;;
3573;SDS011;1801;51.050;6.246;2023-03-23T00:53:30;4.37;;;2.50;;
3573;SDS011;1801;51.050;6.246;2023-03-23T00:55:55;3.60;;;2.90;;
3573;SDS011;1801;51.050;6.246;2023-03-23T00:58:21;3.03;;;2.20;;
3573;SDS011;1801;51.050;6.246;2023-03-23T01:00:46;6.30;;;3.20;;
3573;SDS011;1801;51.050;6.246;2023-03-23T01:03:11;7.60;;;2.80;;
3573;SDS011;1801;51.050;6.246;2023-03-23T01:05:37;2.73;;;2.30;;
3573;SDS011;1801;51.050;6.246;2023-03-23T01:08:03;3.30;;;2.10;;
3573;SDS011;1801;51.050;6.246;2023-03-23T01:10:28;5.00;;;2.50;;
3573;SDS011;1801;51.050;6.246;2023-03-23T01:12:57;5.70;;;2.60;;
3573;SDS011;1801;51.050;6.246;2023-03-23T01:15:22;6.17;;;3.00;;
3573;SDS011;1801;51.050;6.246;2023-03-23T01:17:48;6.30;;;2.70;;
3573;SDS011;1801;51.050;6.246;2023-03-23T01:20:13;3.33;;;2.60;;
3573;SDS011;1801;51.050;6.246;2023-03-23T01:22:40;4.20;;;3.13;;
3573;SDS011;1801;51.050;6.246;2023-03-23T01:25:06;3.63;;;2.80;;
3573;SDS011;1801;51.050;6.246;2023-03-23T01:27:31;5.33;;;2.60;;
3573;SDS011;1801;51.050;6.246;2023-03-23T01:29:56;8.93;;;3.37;;
3573;SDS011;1801;51.050;6.246;2023-03-23T01:32:21;6.50;;;2.97;;
3573;SDS011;1801;51.050;6.246;2023-03-23T01:34:47;5.87;;;3.50;;
3573;SDS011;1801;51.050;6.246;2023-03-23T01:37:12;4.30;;;3.37;;
3573;SDS011;1801;51.050;6.246;2023-03-23T01:39:37;4.57;;;3.13;;
3573;SDS011;1801;51.050;6.246;2023-03-23T01:42:03;6.00;;;3.43;;
3573;SDS011;1801;51.050;6.246;2023-03-23T01:46:56;5.30;;;3.77;;
3573;SDS011;1801;51.050;6.246;2023-03-23T01:49:23;4.20;;;2.97;;
3573;SDS011;1801;51.050;6.246;2023-03-23T01:51:52;8.00;;;3.13;;
3573;SDS011;1801;51.050;6.246;2023-03-23T01:54:18;8.60;;;3.63;;
3573;SDS011;1801;51.050;6.246;2023-03-23T01:56:47;5.83;;;3.57;;
3573;SDS011;1801;51.050;6.246;2023-03-23T01:59:13;5.20;;;3.43;;
3573;SDS011;1801;51.050;6.246;2023-03-23T02:01:40;6.13;;;3.50;;
3573;SDS011;1801;51.050;6.246;2023-03-23T02:04:09;9.50;;;3.67;;
3573;SDS011;1801;51.050;6.246;2023-03-23T02:06:35;3.90;;;3.20;;
3573;SDS011;1801;51.050;6.246;2023-03-23T02:09:00;10.87;;;3.20;;
3573;SDS011;1801;51.050;6.246;2023-03-23T02:11:26;4.53;;;2.93;;
3573;SDS011;1801;51.050;6.246;2023-03-23T02:13:51;4.70;;;2.87;;
3573;SDS011;1801;51.050;6.246;2023-03-23T02:16:21;4.53;;;2.63;;
3573;SDS011;1801;51.050;6.246;2023-03-23T02:26:37;3.07;;;2.10;;
3573;SDS011;1801;51.050;6.246;2023-03-23T02:34:17;2.10;;;1.87;;
3573;SDS011;1801;51.050;6.246;2023-03-23T02:36:50;1.83;;;1.20;;
3573;SDS011;1801;51.050;6.246;2023-03-23T02:39:21;4.53;;;2.50;;
3573;SDS011;1801;51.050;6.246;2023-03-23T02:41:52;4.30;;;2.07;;
3573;SDS011;1801;51.050;6.246;2023-03-23T02:44:18;4.47;;;2.27;;
3573;SDS011;1801;51.050;6.246;2023-03-23T02:46:43;4.07;;;2.40;;
3573;SDS011;1801;51.050;6.246;2023-03-23T02:49:09;4.00;;;2.00;;
3573;SDS011;1801;51.050;6.246;2023-03-23T02:51:37;4.30;;;2.33;;
3573;SDS011;1801;51.050;6.246;2023-03-23T02:54:03;5.37;;;2.57;;
3573;SDS011;1801;51.050;6.246;2023-03-23T02:56:29;6.40;;;3.03;;
3573;SDS011;1801;51.050;6.246;2023-03-23T02:58:55;3.13;;;2.20;;
3573;SDS011;1801;51.050;6.246;2023-03-23T03:03:53;4.50;;;2.23;;
3573;SDS011;1801;51.050;6.246;2023-03-23T03:06:23;2.80;;;2.30;;
3573;SDS011;1801;51.050;6.246;2023-03-23T03:11:16;3.72;;;3.05;;
3573;SDS011;1801;51.050;6.246;2023-03-23T03:16:30;3.43;;;2.30;;
3573;SDS011;1801;51.050;6.246;2023-03-23T03:18:58;2.47;;;2.23;;
3573;SDS011;1801;51.050;6.246;2023-03-23T03:21:27;3.10;;;2.20;;
3573;SDS011;1801;51.050;6.246;2023-03-23T03:23:54;4.30;;;2.60;;
3573;SDS011;1801;51.050;6.246;2023-03-23T03:26:21;7.67;;;2.93;;
3573;SDS011;1801;51.050;6.246;2023-03-23T03:28:51;4.60;;;2.57;;
3573;SDS011;1801;51.050;6.246;2023-03-23T03:31:18;6.17;;;3.20;;
3573;SDS011;1801;51.050;6.246;2023-03-23T03:33:44;4.10;;;2.87;;
3573;SDS011;1801;51.050;6.246;2023-03-23T03:36:14;4.30;;;2.30;;
3573;SDS011;1801;51.050;6.246;2023-03-23T03:38:43;2.80;;;1.77;;
3573;SDS011;1801;51.050;6.246;2023-03-23T03:41:09;3.80;;;2.50;;
3573;SDS011;1801;51.050;6.246;2023-03-23T03:43:34;3.03;;;2.27;;
3573;SDS011;1801;51.050;6.246;2023-03-23T03:46:00;3.13;;;2.20;;
3573;SDS011;1801;51.050;6.246;2023-03-23T03:48:26;5.60;;;2.87;;
3573;SDS011;1801;51.050;6.246;2023-03-23T03:50:51;2.90;;;1.87;;
3573;SDS011;1801;51.050;6.246;2023-03-23T03:53:17;4.20;;;2.57;;
3573;SDS011;1801;51.050;6.246;2023-03-23T03:55:42;6.13;;;2.50;;
3573;SDS011;1801;51.050;6.246;2023-03-23T03:58:10;5.57;;;2.40;;
3573;SDS011;1801;51.050;6.246;2023-03-23T04:00:35;3.53;;;2.40;;
3573;SDS011;1801;51.050;6.246;2023-03-23T04:03:00;2.27;;;1.37;;
3573;SDS011;1801;51.050;6.246;2023-03-23T04:05:25;2.93;;;2.20;;
3573;SDS011;1801;51.050;6.246;2023-03-23T04:07:53;4.40;;;3.17;;
3573;SDS011;1801;51.050;6.246;2023-03-23T04:10:19;4.93;;;2.30;;
3573;SDS011;1801;51.050;6.246;2023-03-23T04:12:47;4.30;;;2.53;;
3573;SDS011;1801;51.050;6.246;2023-03-23T04:15:12;3.07;;;2.50;;
3573;SDS011;1801;51.050;6.246;2023-03-23T04:17:38;4.03;;;3.27;;
3573;SDS011;1801;51.050;6.246;2023-03-23T04:20:05;3.47;;;2.77;;
3573;SDS011;1801;51.050;6.246;2023-03-23T04:22:41;4.20;;;2.57;;
3573;SDS011;1801;51.050;6.246;2023-03-23T04:25:08;7.00;;;2.67;;
3573;SDS011;1801;51.050;6.246;2023-03-23T04:27:35;3.20;;;2.50;;
3573;SDS011;1801;51.050;6.246;2023-03-23T04:30:01;6.20;;;3.30;;
3573;SDS011;1801;51.050;6.246;2023-03-23T04:32:27;3.27;;;2.50;;
3573;SDS011;1801;51.050;6.246;2023-03-23T04:34:59;3.63;;;2.90;;
3573;SDS011;1801;51.050;6.246;2023-03-23T04:37:25;4.10;;;1.93;;
3573;SDS011;1801;51.050;6.246;2023-03-23T04:39:53;2.70;;;2.13;;
3573;SDS011;1801;51.050;6.246;2023-03-23T04:42:26;3.77;;;2.77;;
3573;SDS011;1801;51.050;6.246;2023-03-23T04:44:51;4.10;;;2.90;;
3573;SDS011;1801;51.050;6.246;2023-03-23T04:47:19;4.67;;;2.97;;
3573;SDS011;1801;51.050;6.246;2023-03-23T04:49:45;3.03;;;2.47;;
3573;SDS011;1801;51.050;6.246;2023-03-23T04:52:10;6.23;;;2.37;;
3573;SDS011;1801;51.050;6.246;2023-03-23T04:54:35;8.13;;;3.00;;
3573;SDS011;1801;51.050;6.246;2023-03-23T04:57:00;3.93;;;2.87;;
3573;SDS011;1801;51.050;6.246;2023-03-23T04:59:25;5.87;;;2.40;;
3573;SDS011;1801;51.050;6.246;2023-03-23T05:01:52;3.23;;;2.33;;
3573;SDS011;1801;51.050;6.246;2023-03-23T05:04:18;3.87;;;2.60;;
3573;SDS011;1801;51.050;6.246;2023-03-23T05:06:43;4.03;;;2.90;;
3573;SDS011;1801;51.050;6.246;2023-03-23T05:09:09;3.03;;;2.10;;
3573;SDS011;1801;51.050;6.246;2023-03-23T05:11:34;2.93;;;1.73;;
3573;SDS011;1801;51.050;6.246;2023-03-23T05:14:00;4.37;;;2.70;;
3573;SDS011;1801;51.050;6.246;2023-03-23T05:16:25;6.20;;;2.53;;
3573;SDS011;1801;51.050;6.246;2023-03-23T05:18:50;3.17;;;2.10;;
3573;SDS011;1801;51.050;6.246;2023-03-23T05:21:15;6.13;;;2.33;;
3573;SDS011;1801;51.050;6.246;2023-03-23T05:23:40;6.80;;;3.17;;
3573;SDS011;1801;51.050;6.246;2023-03-23T05:26:07;2.00;;;1.90;;
3573;SDS011;1801;51.050;6.246;2023-03-23T05:28:32;4.30;;;2.47;;
3573;SDS011;1801;51.050;6.246;2023-03-23T05:30:57;3.97;;;2.43;;
3573;SDS011;1801;51.050;6.246;2023-03-23T05:33:23;4.33;;;3.27;;
3573;SDS011;1801;51.050;6.246;2023-03-23T05:35:48;3.60;;;2.83;;
3573;SDS011;1801;51.050;6.246;2023-03-23T05:38:14;6.97;;;2.90;;
3573;SDS011;1801;51.050;6.246;2023-03-23T05:40:39;4.83;;;2.13;;
3573;SDS011;1801;51.050;6.246;2023-03-23T05:43:04;3.93;;;1.93;;
3573;SDS011;1801;51.050;6.246;2023-03-23T05:45:30;7.23;;;2.50;;
3573;SDS011;1801;51.050;6.246;2023-03-23T05:47:55;4.00;;;2.33;;
3573;SDS011;1801;51.050;6.246;2023-03-23T05:50:21;3.70;;;2.33;;
3573;SDS011;1801;51.050;6.246;2023-03-23T05:52:47;3.67;;;2.20;;
3573;SDS011;1801;51.050;6.246;2023-03-23T05:55:13;11.63;;;2.20;;
3573;SDS011;1801;51.050;6.246;2023-03-23T05:57:39;11.07;;;2.90;;
3573;SDS011;1801;51.050;6.246;2023-03-23T06:00:04;3.70;;;2.10;;
3573;SDS011;1801;51.050;6.246;2023-03-23T06:02:44;7.00;;;2.47;;
3573;SDS011;1801;51.050;6.246;2023-03-23T06:05:10;3.80;;;1.80;;
3573;SDS011;1801;51.050;6.246;2023-03-23T06:07:36;4.40;;;2.40;;
3573;SDS011;1801;51.050;6.246;2023-03-23T06:10:02;2.93;;;1.90;;
3573;SDS011;1801;51.050;6.246;2023-03-23T06:12:28;4.20;;;1.83;;
3573;SDS011;1801;51.050;6.246;2023-03-23T06:14:53;5.27;;;1.93;;
3573;SDS011;1801;51.050;6.246;2023-03-23T06:17:18;9.17;;;2.13;;
3573;SDS011;1801;51.050;6.246;2023-03-23T06:19:43;1.73;;;1.43;;
3573;SDS011;1801;51.050;6.246;2023-03-23T06:22:10;2.97;;;1.87;;
3573;SDS011;1801;51.050;6.246;2023-03-23T06:24:35;5.33;;;2.30;;
3573;SDS011;1801;51.050;6.246;2023-03-23T06:27:01;2.70;;;1.70;;
3573;SDS011;1801;51.050;6.246;2023-03-23T06:29:26;3.87;;;2.13;;
3573;SDS011;1801;51.050;6.246;2023-03-23T06:31:52;3.00;;;1.80;;
3573;SDS011;1801;51.050;6.246;2023-03-23T06:34:19;3.90;;;1.60;;
3573;SDS011;1801;51.050;6.246;2023-03-23T06:36:44;3.30;;;2.03;;
3573;SDS011;1801;51.050;6.246;2023-03-23T06:39:09;4.17;;;1.97;;
3573;SDS011;1801;51.050;6.246;2023-03-23T06:41:35;4.30;;;2.60;;
3573;SDS011;1801;51.050;6.246;2023-03-23T06:44:00;4.50;;;2.07;;
3573;SDS011;1801;51.050;6.246;2023-03-23T06:46:26;4.30;;;1.90;;
3573;SDS011;1801;51.050;6.246;2023-03-23T06:48:51;2.40;;;1.70;;
3573;SDS011;1801;51.050;6.246;2023-03-23T06:51:17;3.33;;;1.63;;
3573;SDS011;1801;51.050;6.246;2023-03-23T06:53:42;13.23;;;1.47;;
3573;SDS011;1801;51.050;6.246;2023-03-23T06:56:07;1.90;;;1.73;;
3573;SDS011;1801;51.050;6.246;2023-03-23T06:58:33;5.43;;;2.17;;
3573;SDS011;1801;51.050;6.246;2023-03-23T07:00:58;7.00;;;2.00;;
3573;SDS011;1801;51.050;6.246;2023-03-23T07:03:24;8.00;;;1.97;;
3573;SDS011;1801;51.050;6.246;2023-03-23T07:05:49;5.50;;;1.50;;
3573;SDS011;1801;51.050;6.246;2023-03-23T07:08:15;4.00;;;1.87;;
3573;SDS011;1801;51.050;6.246;2023-03-23T07:10:40;2.77;;;1.90;;
3573;SDS011;1801;51.050;6.246;2023-03-23T07:13:05;4.33;;;1.90;;
3573;SDS011;1801;51.050;6.246;2023-03-23T07:15:31;2.30;;;1.70;;
3573;SDS011;1801;51.050;6.246;2023-03-23T07:17:56;4.47;;;2.50;;
3573;SDS011;1801;51.050;6.246;2023-03-23T07:20:22;3.83;;;1.70;;
3573;SDS011;1801;51.050;6.246;2023-03-23T07:22:47;6.83;;;2.07;;
3573;SDS011;1801;51.050;6.246;2023-03-23T07:25:12;2.40;;;1.43;;
3573;SDS011;1801;51.050;6.246;2023-03-23T07:27:37;8.47;;;1.30;;
3573;SDS011;1801;51.050;6.246;2023-03-23T07:30:03;7.70;;;1.80;;
3573;SDS011;1801;51.050;6.246;2023-03-23T07:32:29;5.17;;;2.10;;
3573;SDS011;1801;51.050;6.246;2023-03-23T07:34:54;4.50;;;1.40;;
3573;SDS011;1801;51.050;6.246;2023-03-23T07:37:21;2.97;;;1.80;;
3573;SDS011;1801;51.050;6.246;2023-03-23T07:39:46;2.10;;;1.87;;
3573;SDS011;1801;51.050;6.246;2023-03-23T07:42:11;1.60;;;1.43;;
3573;SDS011;1801;51.050;6.246;2023-03-23T07:44:37;1.33;;;1.17;;
3573;SDS011;1801;51.050;6.246;2023-03-23T07:47:02;1.13;;;0.93;;
3573;SDS011;1801;51.050;6.246;2023-03-23T07:49:27;4.63;;;1.67;;
3573;SDS011;1801;51.050;6.246;2023-03-23T07:51:52;3.57;;;1.80;;
3573;SDS011;1801;51.050;6.246;2023-03-23T07:54:18;2.90;;;1.30;;
3573;SDS011;1801;51.050;6.246;2023-03-23T07:56:43;5.70;;;1.80;;
3573;SDS011;1801;51.050;6.246;2023-03-23T07:59:10;8.40;;;1.97;;
3573;SDS011;1801;51.050;6.246;2023-03-23T08:01:36;2.57;;;1.33;;
3573;SDS011;1801;51.050;6.246;2023-03-23T08:04:01;2.20;;;0.93;;
3573;SDS011;1801;51.050;6.246;2023-03-23T08:06:26;6.10;;;1.43;;
3573;SDS011;1801;51.050;6.246;2023-03-23T08:08:52;5.83;;;1.20;;
3573;SDS011;1801;51.050;6.246;2023-03-23T08:11:18;3.70;;;2.43;;
3573;SDS011;1801;51.050;6.246;2023-03-23T08:13:43;2.73;;;1.53;;
3573;SDS011;1801;51.050;6.246;2023-03-23T08:16:09;7.00;;;1.27;;
3573;SDS011;1801;51.050;6.246;2023-03-23T08:18:34;4.77;;;1.67;;
3573;SDS011;1801;51.050;6.246;2023-03-23T08:21:00;3.87;;;1.33;;
3573;SDS011;1801;51.050;6.246;2023-03-23T08:23:25;4.40;;;1.47;;
3573;SDS011;1801;51.050;6.246;2023-03-23T08:25:50;4.63;;;1.27;;
3573;SDS011;1801;51.050;6.246;2023-03-23T08:28:16;3.30;;;1.43;;
3573;SDS011;1801;51.050;6.246;2023-03-23T08:30:41;2.83;;;1.50;;
3573;SDS011;1801;51.050;6.246;2023-03-23T08:33:07;2.60;;;1.37;;
3573;SDS011;1801;51.050;6.246;2023-03-23T08:35:35;2.30;;;1.27;;
3573;SDS011;1801;51.050;6.246;2023-03-23T08:38:00;2.10;;;1.53;;
3573;SDS011;1801;51.050;6.246;2023-03-23T08:40:25;2.57;;;1.47;;
3573;SDS011;1801;51.050;6.246;2023-03-23T08:42:51;4.17;;;1.70;;
3573;SDS011;1801;51.050;6.246;2023-03-23T08:45:18;13.43;;;1.60;;
3573;SDS011;1801;51.050;6.246;2023-03-23T08:47:44;3.43;;;1.67;;
3573;SDS011;1801;51.050;6.246;2023-03-23T08:50:11;2.80;;;1.20;;
3573;SDS011;1801;51.050;6.246;2023-03-23T08:52:36;7.00;;;1.67;;
3573;SDS011;1801;51.050;6.246;2023-03-23T08:55:02;2.67;;;1.60;;
3573;SDS011;1801;51.050;6.246;2023-03-23T08:57:28;4.93;;;1.83;;
3573;SDS011;1801;51.050;6.246;2023-03-23T08:59:54;8.40;;;1.60;;
3573;SDS011;1801;51.050;6.246;2023-03-23T09:02:22;3.23;;;1.10;;
3573;SDS011;1801;51.050;6.246;2023-03-23T09:04:48;2.87;;;1.40;;
3573;SDS011;1801;51.050;6.246;2023-03-23T09:07:14;4.30;;;1.30;;
3573;SDS011;1801;51.050;6.246;2023-03-23T09:09:39;7.53;;;1.27;;
3573;SDS011;1801;51.050;6.246;2023-03-23T09:12:05;3.40;;;1.30;;
3573;SDS011;1801;51.050;6.246;2023-03-23T09:14:31;2.37;;;1.87;;
3573;SDS011;1801;51.050;6.246;2023-03-23T09:16:57;5.20;;;2.10;;
3573;SDS011;1801;51.050;6.246;2023-03-23T09:19:22;2.70;;;1.50;;
3573;SDS011;1801;51.050;6.246;2023-03-23T09:21:47;3.67;;;1.57;;
3573;SDS011;1801;51.050;6.246;2023-03-23T09:24:12;3.27;;;1.77;;
3573;SDS011;1801;51.050;6.246;2023-03-23T09:26:38;5.03;;;1.20;;
3573;SDS011;1801;51.050;6.246;2023-03-23T09:29:03;3.50;;;2.30;;
3573;SDS011;1801;51.050;6.246;2023-03-23T09:31:28;7.23;;;1.70;;
3573;SDS011;1801;51.050;6.246;2023-03-23T09:33:56;3.27;;;1.30;;
3573;SDS011;1801;51.050;6.246;2023-03-23T09:36:23;4.03;;;1.40;;
3573;SDS011;1801;51.050;6.246;2023-03-23T09:38:50;3.50;;;1.70;;
3573;SDS011;1801;51.050;6.246;2023-03-23T09:49:10;6.57;;;2.87;;
3573;SDS011;1801;51.050;6.246;2023-03-23T09:54:24;7.73;;;5.60;;
3573;SDS011;1801;51.050;6.246;2023-03-23T09:56:51;11.23;;;7.23;;
3573;SDS011;1801;51.050;6.246;2023-03-23T09:59:19;11.70;;;5.30;;
3573;SDS011;1801;51.050;6.246;2023-03-23T10:01:46;11.30;;;5.43;;
3573;SDS011;1801;51.050;6.246;2023-03-23T10:04:15;18.23;;;10.83;;
3573;SDS011;1801;51.050;6.246;2023-03-23T10:06:45;9.50;;;4.17;;
3573;SDS011;1801;51.050;6.246;2023-03-23T10:09:13;3.70;;;1.93;;
3573;SDS011;1801;51.050;6.246;2023-03-23T10:16:31;3.53;;;1.27;;
3573;SDS011;1801;51.050;6.246;2023-03-23T10:21:42;10.20;;;3.70;;
3573;SDS011;1801;51.050;6.246;2023-03-23T10:24:10;5.33;;;3.00;;
3573;SDS011;1801;51.050;6.246;2023-03-23T10:26:40;4.10;;;2.53;;
3573;SDS011;1801;51.050;6.246;2023-03-23T10:31:50;4.13;;;2.10;;
3573;SDS011;1801;51.050;6.246;2023-03-23T10:34:18;8.30;;;2.50;;
3573;SDS011;1801;51.050;6.246;2023-03-23T10:39:32;19.30;;;10.30;;
3573;SDS011;1801;51.050;6.246;2023-03-23T10:42:02;18.00;;;8.50;;
3573;SDS011;1801;51.050;6.246;2023-03-23T10:44:32;26.60;;;12.60;;
3573;SDS011;1801;51.050;6.246;2023-03-23T10:46:59;16.63;;;7.17;;
3573;SDS011;1801;51.050;6.246;2023-03-23T10:49:31;5.07;;;3.90;;
3573;SDS011;1801;51.050;6.246;2023-03-23T10:52:03;3.03;;;2.00;;
3573;SDS011;1801;51.050;6.246;2023-03-23T10:54:36;4.90;;;3.47;;
3573;SDS011;1801;51.050;6.246;2023-03-23T10:57:12;10.63;;;4.80;;
3573;SDS011;1801;51.050;6.246;2023-03-23T10:59:39;8.73;;;2.47;;
3573;SDS011;1801;51.050;6.246;2023-03-23T11:02:10;4.33;;;1.97;;
3573;SDS011;1801;51.050;6.246;2023-03-23T11:04:37;6.03;;;2.57;;
3573;SDS011;1801;51.050;6.246;2023-03-23T11:07:02;4.07;;;2.10;;
3573;SDS011;1801;51.050;6.246;2023-03-23T11:09:35;5.27;;;2.30;;
3573;SDS011;1801;51.050;6.246;2023-03-23T11:12:01;7.23;;;2.67;;
3573;SDS011;1801;51.050;6.246;2023-03-23T11:14:28;4.53;;;1.93;;
3573;SDS011;1801;51.050;6.246;2023-03-23T11:16:55;3.30;;;1.73;;
3573;SDS011;1801;51.050;6.246;2023-03-23T11:19:32;2.30;;;1.80;;
3573;SDS011;1801;51.050;6.246;2023-03-23T11:24:33;5.17;;;2.90;;
3573;SDS011;1801;51.050;6.246;2023-03-23T11:26:58;4.17;;;2.20;;
3573;SDS011;1801;51.050;6.246;2023-03-23T11:29:25;8.37;;;2.70;;
3573;SDS011;1801;51.050;6.246;2023-03-23T11:34:30;6.40;;;3.00;;
3573;SDS011;1801;51.050;6.246;2023-03-23T11:37:00;8.23;;;3.60;;
3573;SDS011;1801;51.050;6.246;2023-03-23T11:41:51;9.43;;;3.83;;
3573;SDS011;1801;51.050;6.246;2023-03-23T11:44:16;6.93;;;3.30;;
3573;SDS011;1801;51.050;6.246;2023-03-23T11:49:36;6.63;;;4.30;;
3573;SDS011;1801;51.050;6.246;2023-03-23T11:52:05;6.07;;;4.20;;
3573;SDS011;1801;51.050;6.246;2023-03-23T11:54:36;8.30;;;4.50;;
3573;SDS011;1801;51.050;6.246;2023-03-23T11:57:09;6.60;;;3.00;;
3573;SDS011;1801;51.050;6.246;2023-03-23T11:59:36;8.13;;;3.33;;
3573;SDS011;1801;51.050;6.246;2023-03-23T12:02:08;3.63;;;2.50;;
3573;SDS011;1801;51.050;6.246;2023-03-23T12:07:17;5.53;;;3.10;;
3573;SDS011;1801;51.050;6.246;2023-03-23T12:15:16;3.77;;;2.70;;
3573;SDS011;1801;51.050;6.246;2023-03-23T12:25:41;3.43;;;2.53;;
3573;SDS011;1801;51.050;6.246;2023-03-23T12:30:55;6.27;;;2.90;;
3573;SDS011;1801;51.050;6.246;2023-03-23T12:35:50;5.13;;;3.27;;
3573;SDS011;1801;51.050;6.246;2023-03-23T12:41:16;5.60;;;2.90;;
3573;SDS011;1801;51.050;6.246;2023-03-23T12:48:39;7.10;;;4.27;;
3573;SDS011;1801;51.050;6.246;2023-03-23T12:53:39;6.20;;;3.07;;
3573;SDS011;1801;51.050;6.246;2023-03-23T12:58:53;8.07;;;3.70;;
3573;SDS011;1801;51.050;6.246;2023-03-23T13:01:25;4.60;;;3.33;;
3573;SDS011;1801;51.050;6.246;2023-03-23T13:04:08;8.63;;;3.87;;
3573;SDS011;1801;51.050;6.246;2023-03-23T13:06:36;3.20;;;2.90;;
3573;SDS011;1801;51.050;6.246;2023-03-23T13:09:07;4.10;;;3.17;;
3573;SDS011;1801;51.050;6.246;2023-03-23T13:11:38;5.13;;;2.87;;
3573;SDS011;1801;51.050;6.246;2023-03-23T13:16:39;8.67;;;3.10;;
3573;SDS011;1801;51.050;6.246;2023-03-23T13:19:17;7.30;;;3.53;;
3573;SDS011;1801;51.050;6.246;2023-03-23T13:24:12;6.60;;;1.97;;
3573;SDS011;1801;51.050;6.246;2023-03-23T13:26:38;1.63;;;1.10;;
3573;SDS011;1801;51.050;6.246;2023-03-23T13:29:15;3.47;;;1.40;;
3573;SDS011;1801;51.050;6.246;2023-03-23T13:31:43;1.87;;;1.33;;
3573;SDS011;1801;51.050;6.246;2023-03-23T13:36:53;2.30;;;1.33;;
3573;SDS011;1801;51.050;6.246;2023-03-23T13:39:20;1.53;;;1.23;;
3573;SDS011;1801;51.050;6.246;2023-03-23T13:41:54;3.87;;;1.40;;
3573;SDS011;1801;51.050;6.246;2023-03-23T13:44:24;1.03;;;0.93;;
3573;SDS011;1801;51.050;6.246;2023-03-23T13:46:56;1.27;;;1.13;;
3573;SDS011;1801;51.050;6.246;2023-03-23T13:49:23;3.13;;;1.50;;
3573;SDS011;1801;51.050;6.246;2023-03-23T13:51:59;4.20;;;1.43;;
3573;SDS011;1801;51.050;6.246;2023-03-23T13:54:39;3.17;;;1.17;;
3573;SDS011;1801;51.050;6.246;2023-03-23T13:59:47;4.47;;;1.63;;
3573;SDS011;1801;51.050;6.246;2023-03-23T14:04:57;2.80;;;1.80;;
3573;SDS011;1801;51.050;6.246;2023-03-23T14:07:22;3.25;;;1.80;;
3573;SDS011;1801;51.050;6.246;2023-03-23T14:09:49;3.83;;;1.90;;
3573;SDS011;1801;51.050;6.246;2023-03-23T14:12:16;3.13;;;1.67;;
3573;SDS011;1801;51.050;6.246;2023-03-23T14:14:43;26.07;;;2.07;;
3573;SDS011;1801;51.050;6.246;2023-03-23T14:19:39;7.47;;;1.83;;
3573;SDS011;1801;51.050;6.246;2023-03-23T14:22:15;4.70;;;2.10;;
3573;SDS011;1801;51.050;6.246;2023-03-23T14:24:41;7.73;;;1.63;;
3573;SDS011;1801;51.050;6.246;2023-03-23T14:27:17;2.77;;;1.87;;
3573;SDS011;1801;51.050;6.246;2023-03-23T14:29:43;9.73;;;2.30;;
3573;SDS011;1801;51.050;6.246;2023-03-23T14:32:14;6.57;;;2.47;;
3573;SDS011;1801;51.050;6.246;2023-03-23T14:34:40;6.17;;;2.40;;
3573;SDS011;1801;51.050;6.246;2023-03-23T14:37:05;9.90;;;1.93;;
3573;SDS011;1801;51.050;6.246;2023-03-23T14:39:35;5.10;;;2.40;;
3573;SDS011;1801;51.050;6.246;2023-03-23T14:42:05;4.80;;;2.03;;
3573;SDS011;1801;51.050;6.246;2023-03-23T14:44:34;3.13;;;1.97;;
3573;SDS011;1801;51.050;6.246;2023-03-23T14:47:01;5.60;;;2.43;;
3573;SDS011;1801;51.050;6.246;2023-03-23T14:49:29;5.23;;;2.00;;
3573;SDS011;1801;51.050;6.246;2023-03-23T14:51:55;4.80;;;2.10;;
3573;SDS011;1801;51.050;6.246;2023-03-23T14:54:21;5.30;;;2.07;;
3573;SDS011;1801;51.050;6.246;2023-03-23T14:56:47;6.53;;;2.20;;
3573;SDS011;1801;51.050;6.246;2023-03-23T14:59:12;6.60;;;1.80;;
3573;SDS011;1801;51.050;6.246;2023-03-23T15:01:38;8.53;;;3.00;;
3573;SDS011;1801;51.050;6.246;2023-03-23T15:06:33;5.33;;;2.20;;
3573;SDS011;1801;51.050;6.246;2023-03-23T15:08:59;6.23;;;2.40;;
3573;SDS011;1801;51.050;6.246;2023-03-23T15:13:52;5.27;;;2.10;;
3573;SDS011;1801;51.050;6.246;2023-03-23T15:16:26;15.17;;;2.43;;
3573;SDS011;1801;51.050;6.246;2023-03-23T15:21:28;5.23;;;2.00;;
3573;SDS011;1801;51.050;6.246;2023-03-23T15:23:53;4.87;;;2.30;;
3573;SDS011;1801;51.050;6.246;2023-03-23T15:26:22;3.47;;;1.83;;
3573;SDS011;1801;51.050;6.246;2023-03-23T15:28:48;2.83;;;2.10;;
3573;SDS011;1801;51.050;6.246;2023-03-23T15:31:13;4.83;;;1.80;;
3573;SDS011;1801;51.050;6.246;2023-03-23T15:33:39;9.10;;;2.50;;
3573;SDS011;1801;51.050;6.246;2023-03-23T15:36:08;3.77;;;2.00;;
3573;SDS011;1801;51.050;6.246;2023-03-23T15:38:34;6.43;;;3.07;;
3573;SDS011;1801;51.050;6.246;2023-03-23T15:41:01;4.90;;;1.57;;
3573;SDS011;1801;51.050;6.246;2023-03-23T15:43:27;6.70;;;2.43;;
3573;SDS011;1801;51.050;6.246;2023-03-23T15:45:53;3.87;;;2.20;;
3573;SDS011;1801;51.050;6.246;2023-03-23T15:48:20;7.90;;;2.77;;
3573;SDS011;1801;51.050;6.246;2023-03-23T15:50:46;3.30;;;2.00;;
3573;SDS011;1801;51.050;6.246;2023-03-23T15:55:46;5.37;;;1.60;;
3573;SDS011;1801;51.050;6.246;2023-03-23T15:58:12;4.27;;;1.53;;
3573;SDS011;1801;51.050;6.246;2023-03-23T16:00:37;5.23;;;2.10;;
3573;SDS011;1801;51.050;6.246;2023-03-23T16:03:04;5.33;;;1.83;;
3573;SDS011;1801;51.050;6.246;2023-03-23T16:05:30;8.13;;;3.47;;
3573;SDS011;1801;51.050;6.246;2023-03-23T16:07:55;9.57;;;2.67;;
3573;SDS011;1801;51.050;6.246;2023-03-23T16:10:22;8.27;;;2.20;;
3573;SDS011;1801;51.050;6.246;2023-03-23T16:12:48;2.53;;;1.27;;
3573;SDS011;1801;51.050;6.246;2023-03-23T16:15:13;7.80;;;2.73;;
3573;SDS011;1801;51.050;6.246;2023-03-23T16:17:39;5.30;;;2.00;;
3573;SDS011;1801;51.050;6.246;2023-03-23T16:20:27;4.20;;;1.97;;
3573;SDS011;1801;51.050;6.246;2023-03-23T16:22:50;9.47;;;1.80;;
3573;SDS011;1801;51.050;6.246;2023-03-23T16:25:16;7.70;;;2.40;;
3573;SDS011;1801;51.050;6.246;2023-03-23T16:27:42;5.13;;;1.83;;
3573;SDS011;1801;51.050;6.246;2023-03-23T16:32:36;4.87;;;1.50;;
3573;SDS011;1801;51.050;6.246;2023-03-23T16:35:01;6.80;;;2.40;;
3573;SDS011;1801;51.050;6.246;2023-03-23T16:37:26;4.77;;;2.00;;
3573;SDS011;1801;51.050;6.246;2023-03-23T16:39:57;11.87;;;2.57;;
3573;SDS011;1801;51.050;6.246;2023-03-23T16:42:22;7.50;;;2.20;;
3573;SDS011;1801;51.050;6.246;2023-03-23T16:44:47;6.73;;;1.90;;
3573;SDS011;1801;51.050;6.246;2023-03-23T16:47:14;7.23;;;2.13;;
3573;SDS011;1801;51.050;6.246;2023-03-23T16:49:39;7.23;;;2.00;;
3573;SDS011;1801;51.050;6.246;2023-03-23T16:52:05;6.93;;;1.77;;
3573;SDS011;1801;51.050;6.246;2023-03-23T16:54:30;3.53;;;1.93;;
3573;SDS011;1801;51.050;6.246;2023-03-23T16:56:55;6.83;;;2.50;;
3573;SDS011;1801;51.050;6.246;2023-03-23T16:59:21;3.33;;;2.00;;
3573;SDS011;1801;51.050;6.246;2023-03-23T17:01:46;17.20;;;2.53;;
3573;SDS011;1801;51.050;6.246;2023-03-23T17:04:11;10.20;;;2.20;;
3573;SDS011;1801;51.050;6.246;2023-03-23T17:06:36;12.20;;;2.10;;
3573;SDS011;1801;51.050;6.246;2023-03-23T17:09:01;7.33;;;1.90;;
3573;SDS011;1801;51.050;6.246;2023-03-23T17:11:27;7.00;;;2.30;;
3573;SDS011;1801;51.050;6.246;2023-03-23T17:13:52;3.83;;;2.17;;